createdAt,value
2022-09-09T00:01:38.483Z,37.20
2022-09-09T00:04:29.307Z,35.60
2022-09-09T00:07:06.166Z,36.20
2022-09-09T00:09:47.182Z,36.10
2022-09-09T00:12:34.545Z,38.00
2022-09-09T00:15:20.777Z,37.10
2022-09-09T00:17:56.341Z,38.40
2022-09-09T00:20:27.187Z,35.80
2022-09-09T00:23:12.110Z,37.50
2022-09-09T00:26:05.740Z,37.10
2022-09-09T00:28:40.289Z,37.40
2022-09-09T00:31:21.965Z,36.80
2022-09-09T00:33:52.103Z,36.90
2022-09-09T00:36:25.419Z,39.50
2022-09-09T00:38:58.675Z,37.20
2022-09-09T00:42:10.764Z,38.00
2022-09-09T00:44:40.867Z,39.30
2022-09-09T00:47:40.775Z,38.40
2022-09-09T00:50:27.400Z,38.70
2022-09-09T00:53:01.378Z,39.50
2022-09-09T00:55:49.600Z,38.00
2022-09-09T00:58:17.554Z,38.70
2022-09-09T01:00:51.208Z,39.30
2022-09-09T01:03:41.514Z,39.60
2022-09-09T01:06:40.722Z,39.10
2022-09-09T01:09:18.463Z,39.90
2022-09-09T01:12:19.086Z,40.60
2022-09-09T01:14:53.518Z,40.20
2022-09-09T01:17:48.013Z,42.50
2022-09-09T01:20:28.653Z,40.30
2022-09-09T01:23:12.313Z,38.90
2022-09-09T01:26:19.625Z,39.90
2022-09-09T01:28:50.786Z,40.90
2022-09-09T01:31:24.010Z,40.30
2022-09-09T01:33:52.334Z,42.30
2022-09-09T01:36:36.338Z,40.20
2022-09-09T01:39:04.995Z,38.20
2022-09-09T01:41:33.301Z,41.60
2022-09-09T01:44:01.760Z,40.20
2022-09-09T01:46:30.514Z,38.90
2022-09-09T01:49:03.667Z,40.70
2022-09-09T01:51:32.438Z,41.60
2022-09-09T01:54:01.028Z,39.40
2022-09-09T01:56:44.086Z,40.50
2022-09-09T01:59:21.281Z,39.20
2022-09-09T02:02:09.986Z,38.90
2022-09-09T02:05:04.319Z,40.00
2022-09-09T02:07:41.539Z,38.20
2022-09-09T02:10:48.463Z,39.60
2022-09-09T02:13:19.703Z,37.10
2022-09-09T02:15:57.446Z,36.50
2022-09-09T02:19:26.949Z,37.30
2022-09-09T02:21:58.978Z,34.50
2022-09-09T02:24:28.766Z,34.30
2022-09-09T02:27:00.178Z,34.60
2022-09-09T02:29:42.661Z,34.00
2022-09-09T02:32:16.875Z,34.30
2022-09-09T02:34:50.025Z,33.20
2022-09-09T02:37:22.009Z,33.50
2022-09-09T02:39:50.367Z,33.80
2022-09-09T02:42:18.327Z,34.20
2022-09-09T02:44:46.780Z,33.30
2022-09-09T02:47:40.226Z,32.60
2022-09-09T02:50:37.722Z,33.70
2022-09-09T02:53:22.106Z,32.40
2022-09-09T02:56:14.970Z,32.70
2022-09-09T02:58:43.694Z,32.60
2022-09-09T03:01:12.752Z,32.10
2022-09-09T03:03:43.198Z,32.20
2022-09-09T03:06:13.208Z,34.40
2022-09-09T03:08:48.998Z,33.10
2022-09-09T03:11:18.374Z,32.70
2022-09-09T03:13:46.357Z,33.40
2022-09-09T03:16:14.069Z,31.50
2022-09-09T03:18:41.809Z,31.20
2022-09-09T03:21:09.475Z,32.30
2022-09-09T03:23:37.118Z,32.30
2022-09-09T03:26:04.803Z,32.30
2022-09-09T03:28:33.747Z,34.10
2022-09-09T03:31:03.831Z,33.20
2022-09-09T03:33:32.503Z,33.00
2022-09-09T03:36:00.259Z,31.00
2022-09-09T03:38:27.960Z,32.80
2022-09-09T03:40:58.584Z,32.60
2022-09-09T03:43:27.772Z,32.10
2022-09-09T03:45:59.156Z,31.70
2022-09-09T03:48:29.595Z,33.00
2022-09-09T03:50:59.364Z,32.70
2022-09-09T03:53:28.220Z,32.10
2022-09-09T03:56:01.139Z,32.30
2022-09-09T03:58:29.574Z,30.70
2022-09-09T04:01:00.778Z,31.10
2022-09-09T04:03:30.141Z,32.10
2022-09-09T04:06:01.318Z,31.50
2022-09-09T04:08:32.490Z,30.90
2022-09-09T04:11:02.819Z,31.20
2022-09-09T04:13:31.367Z,30.70
2022-09-09T04:16:01.080Z,32.10
2022-09-09T04:18:29.312Z,31.40
2022-09-09T04:20:58.900Z,30.40
2022-09-09T04:23:30.593Z,30.90
2022-09-09T04:26:00.180Z,30.60
2022-09-09T04:28:32.033Z,29.70
2022-09-09T04:31:19.094Z,30.90
2022-09-09T04:33:47.696Z,31.60
2022-09-09T04:36:15.524Z,30.10
2022-09-09T04:38:45.517Z,30.20
2022-09-09T04:41:14.171Z,29.30
2022-09-09T04:43:41.949Z,29.20
2022-09-09T04:46:10.431Z,28.40
2022-09-09T04:48:38.503Z,29.60
2022-09-09T04:51:08.476Z,29.60
2022-09-09T04:53:36.831Z,29.70
2022-09-09T04:56:07.918Z,29.10
2022-09-09T04:58:39.899Z,29.40
2022-09-09T05:01:25.837Z,28.90
2022-09-09T05:03:57.340Z,29.00
2022-09-09T05:06:26.495Z,28.50
2022-09-09T05:08:54.451Z,29.00
2022-09-09T05:11:27.909Z,30.40
2022-09-09T05:13:56.941Z,30.90
2022-09-09T05:16:28.004Z,28.00
2022-09-09T05:18:56.545Z,29.10
2022-09-09T05:21:29.303Z,29.10
2022-09-09T05:23:57.191Z,27.30
2022-09-09T05:26:28.409Z,29.20
2022-09-09T05:28:59.144Z,28.50
2022-09-09T05:31:29.708Z,29.60
2022-09-09T05:33:59.996Z,29.70
2022-09-09T05:36:29.348Z,28.60
2022-09-09T05:38:57.909Z,27.60
2022-09-09T05:41:25.846Z,27.60
2022-09-09T05:43:53.595Z,28.60
2022-09-09T05:46:26.438Z,29.30
2022-09-09T05:48:55.970Z,29.50
2022-09-09T05:51:28.319Z,27.90
2022-09-09T05:54:02.153Z,27.70
2022-09-09T05:56:34.168Z,26.20
2022-09-09T05:59:03.848Z,25.70
2022-09-09T06:01:37.688Z,26.20
2022-09-09T06:04:05.686Z,25.50
2022-09-09T06:06:41.016Z,25.40
2022-09-09T06:09:13.080Z,26.10
2022-09-09T06:11:43.556Z,23.70
2022-09-09T06:14:11.685Z,23.60
2022-09-09T06:16:40.780Z,20.10
2022-09-09T06:19:08.882Z,21.10
2022-09-09T06:21:41.928Z,20.50
2022-09-09T06:24:14.920Z,20.50
2022-09-09T06:26:46.492Z,19.20
2022-09-09T06:29:14.513Z,18.90
2022-09-09T06:31:45.800Z,19.10
2022-09-09T06:34:17.298Z,18.70
2022-09-09T06:36:50.277Z,18.80
2022-09-09T06:39:18.956Z,17.30
2022-09-09T06:41:54.170Z,17.30
2022-09-09T06:44:21.844Z,17.50
2022-09-09T06:46:49.825Z,15.70
2022-09-09T06:49:22.960Z,16.00
2022-09-09T06:51:54.468Z,14.40
2022-09-09T06:54:26.664Z,14.50
2022-09-09T06:56:55.807Z,14.30
2022-09-09T06:59:23.778Z,12.80
2022-09-09T07:01:56.518Z,15.00
2022-09-09T07:04:28.593Z,13.20
2022-09-09T07:06:56.528Z,13.00
2022-09-09T07:09:26.475Z,12.90
2022-09-09T07:11:59.561Z,13.20
2022-09-09T07:14:30.672Z,12.70
2022-09-09T07:16:59.806Z,13.70
2022-09-09T07:19:31.060Z,12.70
2022-09-09T07:21:58.971Z,13.30
2022-09-09T07:24:34.411Z,12.80
2022-09-09T07:27:02.360Z,10.70
2022-09-09T07:29:33.534Z,13.10
2022-09-09T07:32:01.630Z,13.00
2022-09-09T07:34:29.566Z,11.80
2022-09-09T07:37:01.942Z,12.80
2022-09-09T07:39:29.663Z,11.90
2022-09-09T07:42:00.805Z,13.10
2022-09-09T07:44:32.859Z,11.30
2022-09-09T07:47:00.835Z,10.30
2022-09-09T07:49:32.840Z,9.70
2022-09-09T07:52:04.647Z,9.60
2022-09-09T07:54:34.530Z,9.30
2022-09-09T07:57:05.904Z,8.80
2022-09-09T07:59:38.127Z,7.70
2022-09-09T08:02:10.654Z,7.10
2022-09-09T08:04:38.656Z,7.90
2022-09-09T08:07:08.446Z,6.10
2022-09-09T08:09:36.371Z,7.60
2022-09-09T08:12:04.511Z,7.30
2022-09-09T08:14:34.282Z,7.10
2022-09-09T08:17:02.252Z,6.70
2022-09-09T08:19:36.942Z,6.80
2022-09-09T08:22:05.002Z,7.10
2022-09-09T08:24:34.870Z,6.90
2022-09-09T08:27:04.654Z,6.40
2022-09-09T08:29:32.609Z,7.20
2022-09-09T08:32:03.938Z,7.10
2022-09-09T08:34:36.068Z,6.70
2022-09-09T08:37:04.126Z,6.40
2022-09-09T08:39:38.036Z,6.70
2022-09-09T08:42:17.270Z,6.60
2022-09-09T08:45:13.649Z,6.00
2022-09-09T08:48:00.016Z,6.40
2022-09-09T08:50:39.713Z,5.80
2022-09-09T08:53:43.034Z,5.40
2022-09-09T08:56:22.733Z,5.50
2022-09-09T08:58:55.544Z,5.50
2022-09-09T09:01:31.532Z,5.80
2022-09-09T09:03:59.491Z,5.80
2022-09-09T09:07:02.542Z,4.60
2022-09-09T09:09:38.598Z,5.20
2022-09-09T09:12:17.195Z,5.50
2022-09-09T09:14:50.702Z,5.10
2022-09-09T09:17:26.444Z,4.70
2022-09-09T09:19:58.137Z,9.40
2022-09-09T09:22:53.911Z,7.00
2022-09-09T09:25:42.483Z,4.80
2022-09-09T09:28:28.249Z,5.30
2022-09-09T09:31:15.017Z,5.40
2022-09-09T09:33:56.650Z,5.20
2022-09-09T09:36:39.378Z,4.50
2022-09-09T09:41:58.854Z,3.60
2022-09-09T09:44:32.170Z,4.10
2022-09-09T09:47:15.474Z,3.70
2022-09-09T09:49:57.081Z,4.00
2022-09-09T09:52:30.549Z,3.80
2022-09-09T09:55:07.545Z,3.90
2022-09-09T09:57:42.495Z,4.20
2022-09-09T10:00:19.919Z,4.50
2022-09-09T10:02:53.554Z,4.50
2022-09-09T10:05:35.586Z,4.10
2022-09-09T10:08:17.687Z,4.50
2022-09-09T10:11:22.203Z,4.30
2022-09-09T10:14:23.281Z,4.40
2022-09-09T10:17:11.390Z,4.30
2022-09-09T10:20:00.163Z,4.50
2022-09-09T10:22:36.760Z,4.20
2022-09-09T10:25:18.406Z,4.00
2022-09-09T10:28:34.022Z,4.40
2022-09-09T10:31:29.733Z,4.30
2022-09-09T10:34:07.449Z,4.30
2022-09-09T10:36:47.717Z,4.20
2022-09-09T10:39:18.389Z,4.40
2022-09-09T10:42:04.423Z,4.60
2022-09-09T10:44:57.236Z,4.10
2022-09-09T10:48:02.888Z,5.20
2022-09-09T10:51:01.133Z,5.80
2022-09-09T10:53:55.140Z,5.00
2022-09-09T10:56:28.200Z,5.10
2022-09-09T10:59:27.317Z,4.60
2022-09-09T11:02:11.163Z,4.80
2022-09-09T11:04:45.228Z,4.70
2022-09-09T11:07:29.904Z,10.70
2022-09-09T11:10:07.555Z,5.80
2022-09-09T11:12:41.652Z,5.20
2022-09-09T11:15:34.503Z,5.20
2022-09-09T11:18:15.774Z,5.10
2022-09-09T11:20:49.924Z,4.80
2022-09-09T11:23:31.524Z,4.90
2022-09-09T11:26:08.501Z,5.10
2022-09-09T11:29:19.516Z,5.10
2022-09-09T11:32:06.046Z,4.70
2022-09-09T11:35:03.611Z,4.50
2022-09-09T11:37:49.542Z,4.90
2022-09-09T11:40:35.335Z,4.50
2022-09-09T11:43:23.028Z,5.00
2022-09-09T11:46:01.352Z,4.80
2022-09-09T11:48:38.009Z,4.40
2022-09-09T11:51:19.862Z,4.70
2022-09-09T11:54:18.935Z,4.50
2022-09-09T11:56:50.240Z,4.50
2022-09-09T11:59:33.692Z,4.10
2022-09-09T12:04:45.901Z,4.70
2022-09-09T12:07:45.088Z,4.90
2022-09-09T12:10:36.434Z,4.70
2022-09-09T12:13:25.819Z,5.00
2022-09-09T12:15:59.250Z,5.30
2022-09-09T12:18:46.833Z,5.10
2022-09-09T12:21:29.911Z,5.20
2022-09-09T12:24:07.270Z,4.40
2022-09-09T12:26:45.955Z,4.40
2022-09-09T12:29:19.843Z,4.50
2022-09-09T12:32:08.412Z,4.80
2022-09-09T12:34:58.202Z,5.00
2022-09-09T12:37:49.453Z,4.10
2022-09-09T12:40:37.380Z,4.30
2022-09-09T12:43:25.368Z,5.00
2022-09-09T12:46:02.033Z,4.20
2022-09-09T12:48:38.713Z,5.20
2022-09-09T12:51:28.791Z,4.40
2022-09-09T12:54:01.044Z,4.40
2022-09-09T12:56:34.564Z,4.10
2022-09-09T12:59:06.296Z,4.40
2022-09-09T13:01:37.916Z,4.40
2022-09-09T13:04:23.593Z,4.10
2022-09-09T13:06:56.641Z,4.10
2022-09-09T13:09:24.656Z,4.60
2022-09-09T13:11:59.478Z,4.20
2022-09-09T13:14:41.679Z,4.10
2022-09-09T13:17:21.264Z,4.60
2022-09-09T13:19:54.087Z,4.00
2022-09-09T13:22:37.085Z,4.10
2022-09-09T13:25:30.498Z,4.20
2022-09-09T13:28:05.963Z,4.30
2022-09-09T13:30:41.268Z,4.20
2022-09-09T13:33:12.268Z,4.20
2022-09-09T13:35:48.607Z,4.30
2022-09-09T13:38:19.155Z,4.30
2022-09-09T13:41:05.820Z,4.80
2022-09-09T13:43:48.439Z,4.30
2022-09-09T13:46:32.021Z,4.10
2022-09-09T13:49:13.139Z,4.30
2022-09-09T13:51:47.999Z,4.30
2022-09-09T13:54:20.591Z,4.50
2022-09-09T13:56:52.225Z,3.90
2022-09-09T13:59:23.199Z,3.90
2022-09-09T14:01:54.648Z,4.10
2022-09-09T14:04:22.330Z,4.20
2022-09-09T14:06:53.528Z,4.00
2022-09-09T14:09:24.890Z,4.00
2022-09-09T14:11:52.599Z,3.90
2022-09-09T14:14:27.495Z,3.80
2022-09-09T14:16:55.192Z,4.10
2022-09-09T14:19:26.312Z,4.20
2022-09-09T14:21:54.013Z,3.80
2022-09-09T14:24:21.736Z,3.80
2022-09-09T14:26:49.431Z,4.10
2022-09-09T14:29:26.098Z,4.20
2022-09-09T14:31:54.053Z,4.00
2022-09-09T14:34:21.972Z,4.20
2022-09-09T14:36:49.886Z,4.60
2022-09-09T14:39:17.828Z,4.10
2022-09-09T14:41:49.350Z,4.00
2022-09-09T14:44:21.210Z,4.50
2022-09-09T14:46:54.585Z,4.00
2022-09-09T14:49:25.779Z,4.10
2022-09-09T14:51:53.811Z,4.60
2022-09-09T14:54:27.351Z,4.30
2022-09-09T14:56:58.759Z,4.10
2022-09-09T14:59:26.533Z,4.50
2022-09-09T15:02:01.038Z,3.90
2022-09-09T15:04:29.030Z,4.30
2022-09-09T15:07:00.962Z,4.50
2022-09-09T15:09:28.630Z,4.70
2022-09-09T15:12:01.131Z,4.20
2022-09-09T15:14:29.857Z,5.10
2022-09-09T15:16:59.725Z,4.30
2022-09-09T15:19:30.727Z,4.70
2022-09-09T15:22:01.216Z,4.30
2022-09-09T15:24:29.143Z,4.20
2022-09-09T15:27:01.045Z,4.90
2022-09-09T15:29:32.619Z,4.40
2022-09-09T15:32:00.541Z,4.50
2022-09-09T15:34:30.305Z,4.40
2022-09-09T15:37:01.283Z,8.80
2022-09-09T15:39:35.757Z,11.00
2022-09-09T15:42:13.231Z,12.70
2022-09-09T15:44:47.751Z,12.50
2022-09-09T15:47:19.610Z,13.00
2022-09-09T15:49:47.342Z,12.50
2022-09-09T15:52:15.044Z,12.50
2022-09-09T15:54:50.073Z,14.20
2022-09-09T15:57:18.013Z,13.30
2022-09-09T15:59:47.588Z,13.30
2022-09-09T16:02:22.624Z,12.10
2022-09-09T16:04:50.682Z,12.50
2022-09-09T16:07:21.919Z,12.80
2022-09-09T16:09:53.878Z,13.50
2022-09-09T16:12:25.817Z,13.20
2022-09-09T16:14:53.724Z,14.30
2022-09-09T16:17:23.350Z,13.10
2022-09-09T16:19:58.702Z,14.30
2022-09-09T16:22:26.626Z,14.70
2022-09-09T16:24:56.310Z,14.70
2022-09-09T16:27:24.426Z,15.80
2022-09-09T16:29:54.456Z,14.60
2022-09-09T16:32:25.592Z,15.40
2022-09-09T16:34:53.373Z,14.80
2022-09-09T16:37:21.054Z,14.20
2022-09-09T16:39:48.996Z,16.00
2022-09-09T16:42:18.805Z,14.90
2022-09-09T16:44:46.853Z,15.80
2022-09-09T16:47:14.538Z,14.50
2022-09-09T16:49:45.723Z,15.10
2022-09-09T16:52:17.108Z,16.00
2022-09-09T16:54:48.338Z,15.70
2022-09-09T16:57:17.942Z,15.40
2022-09-09T16:59:45.661Z,15.70
2022-09-09T17:02:13.501Z,15.80
2022-09-09T17:04:45.187Z,15.20
2022-09-09T17:07:14.957Z,16.00
2022-09-09T17:09:48.850Z,15.50
2022-09-09T17:12:20.686Z,15.70
2022-09-09T17:14:52.121Z,15.80
2022-09-09T17:17:31.695Z,16.00
2022-09-09T17:22:39.387Z,16.10
2022-09-09T17:25:09.711Z,17.70
2022-09-09T17:27:40.458Z,18.10
2022-09-09T17:30:11.935Z,17.40
2022-09-09T17:32:39.858Z,16.30
2022-09-09T17:35:10.456Z,17.20
2022-09-09T17:37:38.552Z,17.40
2022-09-09T17:40:10.131Z,16.90
2022-09-09T17:42:39.826Z,17.50
2022-09-09T17:45:10.971Z,16.00
2022-09-09T17:47:42.154Z,17.20
2022-09-09T17:50:13.886Z,18.40
2022-09-09T17:52:43.859Z,17.60
2022-09-09T17:55:13.710Z,17.40
2022-09-09T17:57:47.297Z,17.60
2022-09-09T18:00:18.339Z,17.60
2022-09-09T18:02:46.451Z,16.80
2022-09-09T18:05:17.219Z,17.40
2022-09-09T18:07:52.485Z,18.20
2022-09-09T18:10:20.439Z,17.30
2022-09-09T18:12:48.377Z,17.00
2022-09-09T18:15:33.336Z,17.50
2022-09-09T18:18:11.597Z,18.00
2022-09-09T18:20:39.519Z,18.60
2022-09-09T18:23:10.890Z,17.80
2022-09-09T18:25:40.322Z,18.40
2022-09-09T18:28:09.222Z,17.40
2022-09-09T18:30:40.668Z,17.90
2022-09-09T18:33:09.161Z,18.60
2022-09-09T18:35:41.626Z,17.30
2022-09-09T18:38:11.321Z,17.40
2022-09-09T18:40:39.371Z,18.10
2022-09-09T18:43:11.558Z,19.00
2022-09-09T18:45:42.905Z,17.10
2022-09-09T18:48:10.806Z,17.60
2022-09-09T18:50:38.778Z,18.10
2022-09-09T18:53:10.149Z,18.10
2022-09-09T18:55:41.435Z,18.20
2022-09-09T18:58:09.189Z,17.90
2022-09-09T19:00:40.511Z,17.90
2022-09-09T19:03:10.361Z,17.60
2022-09-09T19:05:41.240Z,17.00
2022-09-09T19:08:09.180Z,18.10
2022-09-09T19:10:40.613Z,17.30
2022-09-09T19:13:08.791Z,17.40
2022-09-09T19:15:42.207Z,18.50
2022-09-09T19:18:10.971Z,17.00
2022-09-09T19:20:42.318Z,17.00
2022-09-09T19:23:10.265Z,17.30
2022-09-09T19:25:40.219Z,16.40
2022-09-09T19:28:08.159Z,18.80
2022-09-09T19:30:39.751Z,17.50
2022-09-09T19:33:11.505Z,16.90
2022-09-09T19:35:39.324Z,17.60
2022-09-09T19:38:11.206Z,18.10
2022-09-09T19:40:43.713Z,18.40
2022-09-09T19:43:11.545Z,18.10
2022-09-09T19:45:39.646Z,17.80
2022-09-09T19:48:11.988Z,18.50
2022-09-09T19:50:41.867Z,18.40
2022-09-09T19:53:10.166Z,18.90
2022-09-09T19:55:41.534Z,18.10
2022-09-09T19:58:09.537Z,19.40
2022-09-09T20:00:42.385Z,18.30
2022-09-09T20:03:19.215Z,19.50
2022-09-09T20:05:50.156Z,17.20
2022-09-09T20:08:18.199Z,19.10
2022-09-09T20:10:56.050Z,17.90
2022-09-09T20:13:24.974Z,19.40
2022-09-09T20:16:03.661Z,19.70
2022-09-09T20:18:33.808Z,18.70
2022-09-09T20:21:07.616Z,19.30
2022-09-09T20:23:35.815Z,19.80
2022-09-09T20:26:08.487Z,20.10
2022-09-09T20:28:41.318Z,19.40
2022-09-09T20:31:19.364Z,20.70
2022-09-09T20:33:52.244Z,20.10
2022-09-09T20:36:28.200Z,19.70
2022-09-09T20:39:02.263Z,20.80
2022-09-09T20:41:36.321Z,19.90
2022-09-09T20:44:09.148Z,21.30
2022-09-09T20:46:41.045Z,20.10
2022-09-09T20:49:11.417Z,20.80
2022-09-09T20:51:40.194Z,21.00
2022-09-09T20:54:12.423Z,21.70
2022-09-09T20:56:42.543Z,20.80
2022-09-09T20:59:16.893Z,21.00
2022-09-09T21:01:47.463Z,22.90
2022-09-09T21:04:17.689Z,21.20
2022-09-09T21:06:46.659Z,22.30
2022-09-09T21:09:14.572Z,21.70
2022-09-09T21:11:42.541Z,21.70
2022-09-09T21:14:10.918Z,22.10
2022-09-09T21:16:38.836Z,22.80
2022-09-09T21:19:06.966Z,22.40
2022-09-09T21:21:36.363Z,22.50
2022-09-09T21:24:04.739Z,21.60
2022-09-09T21:26:33.175Z,22.70
2022-09-09T21:29:01.456Z,22.80
2022-09-09T21:31:30.013Z,22.30
2022-09-09T21:33:58.269Z,23.60
2022-09-09T21:36:28.697Z,23.70
2022-09-09T21:38:59.432Z,22.70
2022-09-09T21:41:28.397Z,23.40
2022-09-09T21:43:57.131Z,23.10
2022-09-09T21:46:27.784Z,23.20
2022-09-09T21:48:58.181Z,22.90
2022-09-09T21:51:25.946Z,23.30
2022-09-09T21:53:56.644Z,24.10
2022-09-09T21:56:27.432Z,23.50
2022-09-09T21:58:58.579Z,23.40
2022-09-09T22:01:26.821Z,21.50
2022-09-09T22:03:56.254Z,22.30
2022-09-09T22:06:24.870Z,24.00
2022-09-09T22:08:59.025Z,22.60
2022-09-09T22:11:27.117Z,23.20
2022-09-09T22:13:56.818Z,25.30
2022-09-09T22:16:26.474Z,22.80
2022-09-09T22:18:58.373Z,23.20
2022-09-09T22:21:30.442Z,24.60
2022-09-09T22:24:02.204Z,25.70
2022-09-09T22:26:34.763Z,30.10
2022-09-09T22:29:05.020Z,24.20
2022-09-09T22:31:36.127Z,23.70
2022-09-09T22:34:05.760Z,24.30
2022-09-09T22:36:34.978Z,23.70
2022-09-09T22:39:05.679Z,23.40
2022-09-09T22:41:34.048Z,22.20
2022-09-09T22:44:03.495Z,23.20
2022-09-09T22:46:31.504Z,24.50
2022-09-09T22:49:03.729Z,21.80
2022-09-09T22:51:35.463Z,23.60
2022-09-09T22:54:05.538Z,25.40
2022-09-09T22:56:33.896Z,22.50
2022-09-09T22:59:02.653Z,24.50
2022-09-09T23:01:31.666Z,23.00
2022-09-09T23:04:03.217Z,24.00
2022-09-09T23:06:32.720Z,23.50
2022-09-09T23:09:03.952Z,23.10
2022-09-09T23:11:37.552Z,24.60
2022-09-09T23:14:10.799Z,23.60
2022-09-09T23:16:44.055Z,22.60
2022-09-09T23:19:16.740Z,23.40
2022-09-09T23:21:47.161Z,22.50
2022-09-09T23:24:19.089Z,21.80
2022-09-09T23:26:48.394Z,22.00
2022-09-09T23:29:16.899Z,22.10
2022-09-09T23:31:46.825Z,22.30
2022-09-09T23:34:16.269Z,19.90
2022-09-09T23:36:45.074Z,19.10
2022-09-09T23:39:13.842Z,21.40
2022-09-09T23:41:41.587Z,21.70
2022-09-09T23:44:13.472Z,21.50
2022-09-09T23:46:41.611Z,23.90
2022-09-09T23:49:11.266Z,23.90
2022-09-09T23:51:39.963Z,24.20
2022-09-09T23:54:10.578Z,25.30
2022-09-09T23:56:42.413Z,25.60
2022-09-09T23:59:11.216Z,32.70
